»·PEaware :: UPS2976 KOAK-KPDX

UPS2976 :: KOAK-KPDX

FLIGHT INFORMATION

Flight Status: Arrived
Operator:
United Parcel Service
More flights by this operator :: More flights under this callsign
Pilot: Andrew C. (28419)
Aircraft: BOEING 757-200
(B752)
More flights by this aircraft type
Origin: KOAK Metro Oakland Intl
United States
Destination: KPDX Portland Intl
United States
More flights between these airports :: More routes between these airports
Route: HUSSH2 GRTFL MACHU TMBRS2
File this flight plan on PilotEdge
Remarks: RMK / SIMBRIEF
Altitude:
(Current/Filed)
36,000ft
Speed:
(Current/Filed)
448kts
Departed: 07-Jul-20 07:47 PM
Arrived: 07-Jul-20 09:10 PM
Distance/Time
Traveled:
472nm/1:22
Distance/Time
To Go:
Arrived

Flight Plot

Page will automatically refresh every two minutes.


Map Options




Map Legend


Flown Route
Filed Route
Departure Airport
Arrival Airport
Navaid (VOR, NDB)
Fix

Horizontal Profiles

Position Reports

Time Latitude Longitude Heading Altitude Ground
Speed
07-Jul-20 19:07 37.715600 -122.216897 48 18ft 0kts
07-Jul-20 19:08 37.715600 -122.216897 48 18ft 0kts
07-Jul-20 19:09 37.715600 -122.216897 48 18ft 0kts
07-Jul-20 19:10 37.715600 -122.216897 48 18ft 0kts
07-Jul-20 19:11 37.715600 -122.216897 48 18ft 0kts
07-Jul-20 19:12 37.715600 -122.216897 48 18ft 0kts
07-Jul-20 19:13 37.715600 -122.216897 48 18ft 0kts
07-Jul-20 19:14 37.715600 -122.216897 48 18ft 0kts
07-Jul-20 19:15 37.715600 -122.216897 48 18ft 0kts
07-Jul-20 19:16 37.715600 -122.216897 48 18ft 0kts
07-Jul-20 19:17 37.715600 -122.216897 48 18ft 0kts
07-Jul-20 19:19 37.715600 -122.216897 48 18ft 0kts
07-Jul-20 19:20 37.715600 -122.216897 48 18ft 0kts
07-Jul-20 19:21 37.715600 -122.216897 48 18ft 0kts
07-Jul-20 19:22 37.715600 -122.216897 48 18ft 0kts
07-Jul-20 19:23 37.715600 -122.216897 48 18ft 0kts
07-Jul-20 19:24 37.715600 -122.216897 48 18ft 0kts
07-Jul-20 19:25 37.715600 -122.216897 48 18ft 0kts
07-Jul-20 19:26 37.715600 -122.216897 48 18ft 0kts
07-Jul-20 19:27 37.715600 -122.216897 48 18ft 0kts
07-Jul-20 19:28 37.715600 -122.216897 48 18ft 0kts
07-Jul-20 19:29 37.715600 -122.216897 48 18ft 0kts
07-Jul-20 19:30 37.715600 -122.216897 48 18ft 0kts
07-Jul-20 19:31 37.715600 -122.216897 48 18ft 0kts
07-Jul-20 19:32 37.715600 -122.216897 48 18ft 0kts
07-Jul-20 19:33 37.715600 -122.216897 48 18ft 0kts
07-Jul-20 19:34 37.715600 -122.216897 48 18ft 0kts
07-Jul-20 19:35 37.715600 -122.216897 48 18ft 0kts
07-Jul-20 19:35 37.715600 -122.216897 48 18ft 0kts
07-Jul-20 19:37 37.715600 -122.216897 48 18ft 0kts
07-Jul-20 19:37 37.715459 -122.217096 48 18ft 2kts
07-Jul-20 19:38 37.714999 -122.217366 340 18ft 2kts
07-Jul-20 19:40 37.714841 -122.217235 317 18ft 0kts
07-Jul-20 19:40 37.714841 -122.217235 317 18ft 0kts
07-Jul-20 19:41 37.714861 -122.219524 227 18ft 17kts
07-Jul-20 19:42 37.710825 -122.224180 176 18ft 14kts
07-Jul-20 19:43 37.708196 -122.220538 128 18ft 16kts
07-Jul-20 19:44 37.705369 -122.216330 129 18ft 17kts
07-Jul-20 19:45 37.701821 -122.213937 222 18ft 13kts
07-Jul-20 19:46 37.714490 -122.233894 307 62ft 170kts
07-Jul-20 19:47 37.735658 -122.288452 288 944ft 179kts
07-Jul-20 19:48 37.753292 -122.343168 321 1526ft 171kts
07-Jul-20 19:49 37.805905 -122.367985 337 3270ft 219kts
07-Jul-20 19:50 37.868859 -122.385862 0 5596ft 256kts
07-Jul-20 19:51 37.940946 -122.382780 10 8635ft 269kts
07-Jul-20 19:52 38.017433 -122.355456 14 10422ft 326kts
07-Jul-20 19:53 38.107727 -122.322145 14 13108ft 354kts
07-Jul-20 19:54 38.203318 -122.286778 13 15987ft 370kts
07-Jul-20 19:55 38.303763 -122.249518 13 18534ft 387kts
07-Jul-20 19:56 38.409666 -122.237795 352 20748ft 397kts
07-Jul-20 19:57 38.521461 -122.249120 351 22918ft 410kts
07-Jul-20 19:58 38.636792 -122.261108 351 24868ft 423kts
07-Jul-20 19:59 38.754732 -122.273434 350 26664ft 433kts
07-Jul-20 20:00 38.875332 -122.286088 349 28261ft 443kts
07-Jul-20 20:01 38.998943 -122.299088 349 29704ft 452kts
07-Jul-20 20:02 39.118442 -122.311708 349 30938ft 460kts
07-Jul-20 20:03 39.246497 -122.325276 349 32096ft 468kts
07-Jul-20 20:04 39.348820 -122.336121 349 33342ft 464kts
07-Jul-20 20:05 39.477046 -122.349785 348 34729ft 460kts
07-Jul-20 20:06 39.603523 -122.363322 348 35859ft 456kts
07-Jul-20 20:07 39.729958 -122.376922 348 35886ft 455kts
07-Jul-20 20:08 39.856189 -122.390543 348 35886ft 456kts
07-Jul-20 20:09 39.982208 -122.404181 348 35886ft 456kts
07-Jul-20 20:10 40.104983 -122.417521 348 35886ft 456kts
07-Jul-20 20:11 40.230676 -122.431223 348 35891ft 456kts
07-Jul-20 20:12 40.356511 -122.444985 348 35903ft 455kts
07-Jul-20 20:13 40.482255 -122.458808 348 35903ft 455kts
07-Jul-20 20:14 40.608137 -122.472684 348 35903ft 455kts
07-Jul-20 20:15 40.734167 -122.486633 348 35969ft 454kts
07-Jul-20 20:16 40.859437 -122.500559 348 36040ft 454kts
07-Jul-20 20:17 40.984713 -122.514525 348 36041ft 453kts
07-Jul-20 20:18 41.107231 -122.528242 348 36040ft 453kts
07-Jul-20 20:19 41.229132 -122.541932 349 36040ft 453kts
07-Jul-20 20:20 41.354220 -122.556039 349 36068ft 448kts
07-Jul-20 20:21 41.478485 -122.570112 349 36123ft 449kts
07-Jul-20 20:22 41.603200 -122.580510 351 36122ft 451kts
07-Jul-20 20:23 41.727870 -122.588586 351 36122ft 451kts
07-Jul-20 20:24 41.853332 -122.596782 351 36122ft 451kts
07-Jul-20 20:25 41.978444 -122.604992 351 36122ft 450kts
07-Jul-20 20:26 42.100345 -122.613023 351 36122ft 448kts
07-Jul-20 20:27 42.225083 -122.621281 351 36122ft 448kts
07-Jul-20 20:28 42.349712 -122.629592 351 36122ft 447kts
07-Jul-20 20:29 42.473674 -122.637895 351 36121ft 446kts
07-Jul-20 20:30 42.597848 -122.646245 351 36123ft 446kts
07-Jul-20 20:31 42.720450 -122.654520 351 36146ft 444kts
07-Jul-20 20:32 42.843547 -122.662863 351 36147ft 443kts
07-Jul-20 20:33 42.966633 -122.671242 351 36148ft 444kts
07-Jul-20 20:34 43.089943 -122.679669 351 36153ft 443kts
07-Jul-20 20:35 43.210207 -122.687921 351 36175ft 442kts
07-Jul-20 20:36 43.333198 -122.696389 351 36176ft 442kts
07-Jul-20 20:37 43.455648 -122.704842 351 36176ft 441kts
07-Jul-20 20:38 43.572916 -122.712883 350 34964ft 413kts
07-Jul-20 20:39 43.687580 -122.720889 350 33023ft 417kts
07-Jul-20 20:40 43.804210 -122.729011 350 31100ft 421kts
07-Jul-20 20:41 43.920134 -122.737078 350 29220ft 412kts
07-Jul-20 20:42 44.033167 -122.744995 350 27419ft 400kts
07-Jul-20 20:43 44.138840 -122.752401 351 25754ft 391kts
07-Jul-20 20:44 44.246574 -122.743625 357 24112ft 386kts
07-Jul-20 20:45 44.352114 -122.733272 357 22503ft 377kts
07-Jul-20 20:46 44.455420 -122.723058 358 20920ft 367kts
07-Jul-20 20:47 44.555978 -122.713083 358 19380ft 359kts
07-Jul-20 20:48 44.653385 -122.703331 358 17738ft 343kts
07-Jul-20 20:49 44.746779 -122.693947 358 16133ft 331kts
07-Jul-20 20:50 44.837711 -122.684807 359 14759ft 326kts
07-Jul-20 20:51 44.927005 -122.675805 359 13494ft 318kts
07-Jul-20 20:52 45.010747 -122.667301 359 12407ft 292kts
07-Jul-20 20:53 45.090867 -122.659185 359 11285ft 287kts
07-Jul-20 20:54 45.167188 -122.651419 0 10173ft 284kts
07-Jul-20 20:55 45.243787 -122.644327 350 9160ft 265kts
07-Jul-20 20:56 45.313763 -122.678465 336 7938ft 265kts
07-Jul-20 20:57 45.381711 -122.715544 336 6731ft 259kts
07-Jul-20 20:58 45.447494 -122.751669 336 5695ft 254kts
07-Jul-20 20:59 45.510394 -122.786247 336 5085ft 224kts
07-Jul-20 21:00 45.566230 -122.817103 336 4997ft 202kts
07-Jul-20 21:01 45.600464 -122.876269 301 5022ft 198kts
07-Jul-20 21:02 45.632678 -122.938631 336 4824ft 197kts
07-Jul-20 21:03 45.680521 -122.906004 34 3996ft 185kts
07-Jul-20 21:04 45.691781 -122.848219 143 3024ft 182kts
07-Jul-20 21:05 45.660835 -122.790465 117 2661ft 191kts
07-Jul-20 21:06 45.638214 -122.732170 119 1733ft 142kts
07-Jul-20 21:07 45.619648 -122.684131 118 991ft 136kts
07-Jul-20 21:08 45.601102 -122.636738 117 319ft 136kts
07-Jul-20 21:09 45.587869 -122.602784 117 34ft 32kts
07-Jul-20 21:10 45.586898 -122.603513 299 33ft 8kts
07-Jul-20 21:11 45.586359 -122.608880 197 33ft 17kts
07-Jul-20 21:12 45.584567 -122.608275 135 32ft 1kts

Navigation Log

Ident Type
Flight plan parsing failed, navigation log unavailable